sensor_id;sensor_type;location;lat;lon;timestamp;temperature;humidity
37158;DHT22;23050;51.776;22.638;2022-07-22T00:02:05;17.10;99.90
37158;DHT22;23050;51.776;22.638;2022-07-22T00:04:31;17.00;99.90
37158;DHT22;23050;51.776;22.638;2022-07-22T00:06:56;17.00;99.90
37158;DHT22;23050;51.776;22.638;2022-07-22T00:09:22;17.00;99.90
37158;DHT22;23050;51.776;22.638;2022-07-22T00:11:48;17.00;99.90
37158;DHT22;23050;51.776;22.638;2022-07-22T00:14:13;16.90;99.90
37158;DHT22;23050;51.776;22.638;2022-07-22T00:16:39;16.90;99.90
37158;DHT22;23050;51.776;22.638;2022-07-22T00:19:05;16.80;99.90
37158;DHT22;23050;51.776;22.638;2022-07-22T00:21:30;16.80;99.90
37158;DHT22;23050;51.776;22.638;2022-07-22T00:23:56;16.80;99.90
37158;DHT22;23050;51.776;22.638;2022-07-22T00:26:22;16.90;99.90
37158;DHT22;23050;51.776;22.638;2022-07-22T00:28:47;16.80;99.90
37158;DHT22;23050;51.776;22.638;2022-07-22T00:31:13;16.80;99.90
37158;DHT22;23050;51.776;22.638;2022-07-22T00:33:38;16.70;99.90
37158;DHT22;23050;51.776;22.638;2022-07-22T00:36:04;16.70;99.90
37158;DHT22;23050;51.776;22.638;2022-07-22T00:38:31;16.70;99.90
37158;DHT22;23050;51.776;22.638;2022-07-22T00:40:57;16.70;99.90
37158;DHT22;23050;51.776;22.638;2022-07-22T00:43:23;16.60;99.90
37158;DHT22;23050;51.776;22.638;2022-07-22T00:45:48;16.60;99.90
37158;DHT22;23050;51.776;22.638;2022-07-22T00:48:14;16.60;99.90
37158;DHT22;23050;51.776;22.638;2022-07-22T00:50:40;16.50;99.90
37158;DHT22;23050;51.776;22.638;2022-07-22T00:53:06;16.50;99.90
37158;DHT22;23050;51.776;22.638;2022-07-22T00:55:34;16.60;99.90
37158;DHT22;23050;51.776;22.638;2022-07-22T00:58:00;16.60;99.90
37158;DHT22;23050;51.776;22.638;2022-07-22T01:00:26;16.60;99.90
37158;DHT22;23050;51.776;22.638;2022-07-22T01:02:52;16.60;99.90
37158;DHT22;23050;51.776;22.638;2022-07-22T01:05:18;16.60;99.90
37158;DHT22;23050;51.776;22.638;2022-07-22T01:07:43;16.60;99.90
37158;DHT22;23050;51.776;22.638;2022-07-22T01:10:09;16.60;99.90
37158;DHT22;23050;51.776;22.638;2022-07-22T01:12:36;16.60;99.90
37158;DHT22;23050;51.776;22.638;2022-07-22T01:15:02;16.60;99.90
37158;DHT22;23050;51.776;22.638;2022-07-22T01:17:28;16.60;99.90
37158;DHT22;23050;51.776;22.638;2022-07-22T01:19:58;16.60;99.90
37158;DHT22;23050;51.776;22.638;2022-07-22T01:22:26;16.60;99.90
37158;DHT22;23050;51.776;22.638;2022-07-22T01:24:52;16.60;99.90
37158;DHT22;23050;51.776;22.638;2022-07-22T01:27:17;16.60;99.90
37158;DHT22;23050;51.776;22.638;2022-07-22T01:29:43;16.50;99.90
37158;DHT22;23050;51.776;22.638;2022-07-22T01:32:08;16.50;99.90
37158;DHT22;23050;51.776;22.638;2022-07-22T01:34:34;16.40;99.90
37158;DHT22;23050;51.776;22.638;2022-07-22T01:37:00;16.50;99.90
37158;DHT22;23050;51.776;22.638;2022-07-22T01:39:25;16.40;99.90
37158;DHT22;23050;51.776;22.638;2022-07-22T01:41:51;16.40;99.90
37158;DHT22;23050;51.776;22.638;2022-07-22T01:44:16;16.40;99.90
37158;DHT22;23050;51.776;22.638;2022-07-22T01:46:42;16.40;99.90
37158;DHT22;23050;51.776;22.638;2022-07-22T01:49:07;16.30;99.90
37158;DHT22;23050;51.776;22.638;2022-07-22T01:51:33;16.30;99.90
37158;DHT22;23050;51.776;22.638;2022-07-22T01:53:59;16.30;99.90
37158;DHT22;23050;51.776;22.638;2022-07-22T01:56:24;16.30;99.90
37158;DHT22;23050;51.776;22.638;2022-07-22T01:58:50;16.30;99.90
37158;DHT22;23050;51.776;22.638;2022-07-22T02:01:16;16.20;99.90
37158;DHT22;23050;51.776;22.638;2022-07-22T02:03:41;16.20;99.90
37158;DHT22;23050;51.776;22.638;2022-07-22T02:06:07;16.20;99.90
37158;DHT22;23050;51.776;22.638;2022-07-22T02:08:32;16.20;99.90
37158;DHT22;23050;51.776;22.638;2022-07-22T02:10:59;16.20;99.90
37158;DHT22;23050;51.776;22.638;2022-07-22T02:13:24;16.10;99.90
37158;DHT22;23050;51.776;22.638;2022-07-22T02:15:50;16.10;99.90
37158;DHT22;23050;51.776;22.638;2022-07-22T02:18:17;16.10;99.90
37158;DHT22;23050;51.776;22.638;2022-07-22T02:20:44;16.10;99.90
37158;DHT22;23050;51.776;22.638;2022-07-22T02:23:10;16.10;99.90
37158;DHT22;23050;51.776;22.638;2022-07-22T02:25:40;16.00;99.90
37158;DHT22;23050;51.776;22.638;2022-07-22T02:28:06;16.10;99.90
37158;DHT22;23050;51.776;22.638;2022-07-22T02:30:31;16.00;99.90
37158;DHT22;23050;51.776;22.638;2022-07-22T02:32:58;16.00;99.90
37158;DHT22;23050;51.776;22.638;2022-07-22T02:35:25;16.00;99.90
37158;DHT22;23050;51.776;22.638;2022-07-22T02:37:51;16.00;99.90
37158;DHT22;23050;51.776;22.638;2022-07-22T02:40:17;16.10;99.90
37158;DHT22;23050;51.776;22.638;2022-07-22T02:42:42;16.00;99.90
37158;DHT22;23050;51.776;22.638;2022-07-22T02:45:08;16.00;99.90
37158;DHT22;23050;51.776;22.638;2022-07-22T02:47:34;16.00;99.90
37158;DHT22;23050;51.776;22.638;2022-07-22T02:50:00;16.00;99.90
37158;DHT22;23050;51.776;22.638;2022-07-22T02:52:25;16.10;99.90
37158;DHT22;23050;51.776;22.638;2022-07-22T02:54:51;16.10;99.90
37158;DHT22;23050;51.776;22.638;2022-07-22T02:57:16;16.10;99.90
37158;DHT22;23050;51.776;22.638;2022-07-22T02:59:42;16.10;99.90
37158;DHT22;23050;51.776;22.638;2022-07-22T03:02:08;16.10;99.90
37158;DHT22;23050;51.776;22.638;2022-07-22T03:04:33;16.20;99.90
37158;DHT22;23050;51.776;22.638;2022-07-22T03:06:59;16.20;99.90
37158;DHT22;23050;51.776;22.638;2022-07-22T03:09:24;16.20;99.90
37158;DHT22;23050;51.776;22.638;2022-07-22T03:11:50;16.20;99.90
37158;DHT22;23050;51.776;22.638;2022-07-22T03:14:16;16.30;99.90
37158;DHT22;23050;51.776;22.638;2022-07-22T03:16:43;16.30;99.90
37158;DHT22;23050;51.776;22.638;2022-07-22T03:19:09;16.30;99.90
37158;DHT22;23050;51.776;22.638;2022-07-22T03:21:35;16.30;99.90
37158;DHT22;23050;51.776;22.638;2022-07-22T03:24:00;16.40;99.90
37158;DHT22;23050;51.776;22.638;2022-07-22T03:26:26;16.40;99.90
37158;DHT22;23050;51.776;22.638;2022-07-22T03:28:51;16.40;99.90
37158;DHT22;23050;51.776;22.638;2022-07-22T03:31:17;16.50;99.90
37158;DHT22;23050;51.776;22.638;2022-07-22T03:33:43;16.50;99.90
37158;DHT22;23050;51.776;22.638;2022-07-22T03:36:08;16.60;99.90
37158;DHT22;23050;51.776;22.638;2022-07-22T03:38:35;16.50;99.90
37158;DHT22;23050;51.776;22.638;2022-07-22T03:41:00;16.50;99.90
37158;DHT22;23050;51.776;22.638;2022-07-22T03:43:26;16.50;99.90
37158;DHT22;23050;51.776;22.638;2022-07-22T03:45:52;16.50;99.90
37158;DHT22;23050;51.776;22.638;2022-07-22T03:48:17;16.60;99.90
37158;DHT22;23050;51.776;22.638;2022-07-22T03:50:43;16.70;99.90
37158;DHT22;23050;51.776;22.638;2022-07-22T03:53:09;16.70;99.90
37158;DHT22;23050;51.776;22.638;2022-07-22T03:55:35;16.70;99.90
37158;DHT22;23050;51.776;22.638;2022-07-22T03:58:00;16.90;99.90
37158;DHT22;23050;51.776;22.638;2022-07-22T04:00:26;17.00;99.90
37158;DHT22;23050;51.776;22.638;2022-07-22T04:02:51;17.10;99.90
37158;DHT22;23050;51.776;22.638;2022-07-22T04:05:17;17.20;99.90
37158;DHT22;23050;51.776;22.638;2022-07-22T04:07:42;17.30;99.90
37158;DHT22;23050;51.776;22.638;2022-07-22T04:10:09;17.40;99.90
37158;DHT22;23050;51.776;22.638;2022-07-22T04:12:36;17.50;99.90
37158;DHT22;23050;51.776;22.638;2022-07-22T04:15:03;17.70;99.90
37158;DHT22;23050;51.776;22.638;2022-07-22T04:17:29;17.80;99.90
37158;DHT22;23050;51.776;22.638;2022-07-22T04:19:55;18.10;99.90
37158;DHT22;23050;51.776;22.638;2022-07-22T04:22:21;18.10;99.90
37158;DHT22;23050;51.776;22.638;2022-07-22T04:24:47;18.30;99.90
37158;DHT22;23050;51.776;22.638;2022-07-22T04:27:13;18.40;99.90
37158;DHT22;23050;51.776;22.638;2022-07-22T04:29:38;18.60;99.90
37158;DHT22;23050;51.776;22.638;2022-07-22T04:32:04;18.70;99.90
37158;DHT22;23050;51.776;22.638;2022-07-22T04:34:30;18.80;99.90
37158;DHT22;23050;51.776;22.638;2022-07-22T04:36:56;19.00;99.90
37158;DHT22;23050;51.776;22.638;2022-07-22T04:39:22;19.20;99.90
37158;DHT22;23050;51.776;22.638;2022-07-22T04:41:47;19.40;99.90
37158;DHT22;23050;51.776;22.638;2022-07-22T04:44:13;19.50;99.90
37158;DHT22;23050;51.776;22.638;2022-07-22T04:46:38;19.70;99.90
37158;DHT22;23050;51.776;22.638;2022-07-22T04:49:04;19.80;99.90
37158;DHT22;23050;51.776;22.638;2022-07-22T04:51:29;20.00;99.90
37158;DHT22;23050;51.776;22.638;2022-07-22T04:53:55;20.10;99.90
37158;DHT22;23050;51.776;22.638;2022-07-22T04:56:21;20.30;99.90
37158;DHT22;23050;51.776;22.638;2022-07-22T04:58:46;20.40;99.90
37158;DHT22;23050;51.776;22.638;2022-07-22T05:01:12;20.50;99.90
37158;DHT22;23050;51.776;22.638;2022-07-22T05:03:41;20.70;99.90
37158;DHT22;23050;51.776;22.638;2022-07-22T05:06:07;20.70;99.90
37158;DHT22;23050;51.776;22.638;2022-07-22T05:08:33;20.90;99.90
37158;DHT22;23050;51.776;22.638;2022-07-22T05:10:59;21.10;99.90
37158;DHT22;23050;51.776;22.638;2022-07-22T05:13:24;21.20;99.90
37158;DHT22;23050;51.776;22.638;2022-07-22T05:15:50;21.40;99.90
37158;DHT22;23050;51.776;22.638;2022-07-22T05:18:16;21.60;99.90
37158;DHT22;23050;51.776;22.638;2022-07-22T05:20:42;21.80;99.90
37158;DHT22;23050;51.776;22.638;2022-07-22T05:23:07;22.20;99.90
37158;DHT22;23050;51.776;22.638;2022-07-22T05:25:33;22.50;99.90
37158;DHT22;23050;51.776;22.638;2022-07-22T05:27:58;22.80;99.90
37158;DHT22;23050;51.776;22.638;2022-07-22T05:30:24;23.10;99.90
37158;DHT22;23050;51.776;22.638;2022-07-22T05:32:50;23.70;99.90
37158;DHT22;23050;51.776;22.638;2022-07-22T05:35:16;24.60;99.90
37158;DHT22;23050;51.776;22.638;2022-07-22T05:37:41;25.90;99.90
37158;DHT22;23050;51.776;22.638;2022-07-22T05:40:08;26.70;99.90
37158;DHT22;23050;51.776;22.638;2022-07-22T05:42:33;27.10;99.90
37158;DHT22;23050;51.776;22.638;2022-07-22T05:44:59;27.90;94.40
37158;DHT22;23050;51.776;22.638;2022-07-22T05:47:25;28.50;90.90
37158;DHT22;23050;51.776;22.638;2022-07-22T05:49:50;29.20;73.50
37158;DHT22;23050;51.776;22.638;2022-07-22T05:52:16;29.70;57.00
37158;DHT22;23050;51.776;22.638;2022-07-22T05:54:41;30.00;53.10
37158;DHT22;23050;51.776;22.638;2022-07-22T05:57:07;30.30;38.10
37158;DHT22;23050;51.776;22.638;2022-07-22T05:59:36;30.90;30.70
37158;DHT22;23050;51.776;22.638;2022-07-22T06:02:02;31.10;29.10
37158;DHT22;23050;51.776;22.638;2022-07-22T06:04:28;30.90;24.90
37158;DHT22;23050;51.776;22.638;2022-07-22T06:06:54;31.30;22.40
37158;DHT22;23050;51.776;22.638;2022-07-22T06:09:19;32.10;19.00
37158;DHT22;23050;51.776;22.638;2022-07-22T06:11:45;31.80;19.50
37158;DHT22;23050;51.776;22.638;2022-07-22T06:14:10;31.40;18.50
37158;DHT22;23050;51.776;22.638;2022-07-22T06:16:36;31.70;19.60
37158;DHT22;23050;51.776;22.638;2022-07-22T06:19:02;31.80;17.90
37158;DHT22;23050;51.776;22.638;2022-07-22T06:21:30;32.20;16.40
37158;DHT22;23050;51.776;22.638;2022-07-22T06:23:55;32.50;14.40
37158;DHT22;23050;51.776;22.638;2022-07-22T06:26:21;33.30;12.70
37158;DHT22;23050;51.776;22.638;2022-07-22T06:28:46;32.50;10.80
37158;DHT22;23050;51.776;22.638;2022-07-22T06:31:12;33.00;9.70
37158;DHT22;23050;51.776;22.638;2022-07-22T06:33:37;32.90;9.30
37158;DHT22;23050;51.776;22.638;2022-07-22T06:36:03;32.90;9.40
37158;DHT22;23050;51.776;22.638;2022-07-22T06:38:29;32.50;9.20
37158;DHT22;23050;51.776;22.638;2022-07-22T06:40:55;32.90;8.60
37158;DHT22;23050;51.776;22.638;2022-07-22T06:43:21;33.40;8.30
37158;DHT22;23050;51.776;22.638;2022-07-22T06:45:47;33.50;8.40
37158;DHT22;23050;51.776;22.638;2022-07-22T06:48:13;33.50;7.90
37158;DHT22;23050;51.776;22.638;2022-07-22T06:50:38;33.50;7.40
37158;DHT22;23050;51.776;22.638;2022-07-22T06:53:04;34.00;7.60
37158;DHT22;23050;51.776;22.638;2022-07-22T06:55:30;34.20;6.40
37158;DHT22;23050;51.776;22.638;2022-07-22T06:57:55;34.00;6.90
37158;DHT22;23050;51.776;22.638;2022-07-22T07:00:21;33.80;7.20
37158;DHT22;23050;51.776;22.638;2022-07-22T07:02:47;32.80;8.30
37158;DHT22;23050;51.776;22.638;2022-07-22T07:05:12;33.00;6.90
37158;DHT22;23050;51.776;22.638;2022-07-22T07:07:38;33.50;6.60
37158;DHT22;23050;51.776;22.638;2022-07-22T07:10:04;33.10;6.80
37158;DHT22;23050;51.776;22.638;2022-07-22T07:12:30;33.70;6.40
37158;DHT22;23050;51.776;22.638;2022-07-22T07:14:55;33.30;6.80
37158;DHT22;23050;51.776;22.638;2022-07-22T07:17:21;33.40;6.40
37158;DHT22;23050;51.776;22.638;2022-07-22T07:19:46;33.40;7.90
37158;DHT22;23050;51.776;22.638;2022-07-22T07:22:12;32.90;9.10
37158;DHT22;23050;51.776;22.638;2022-07-22T07:24:37;33.40;9.80
37158;DHT22;23050;51.776;22.638;2022-07-22T07:27:03;34.20;9.10
37158;DHT22;23050;51.776;22.638;2022-07-22T07:29:29;34.70;7.90
37158;DHT22;23050;51.776;22.638;2022-07-22T07:31:54;34.90;6.20
37158;DHT22;23050;51.776;22.638;2022-07-22T07:34:20;34.20;6.50
37158;DHT22;23050;51.776;22.638;2022-07-22T07:36:45;33.80;7.40
37158;DHT22;23050;51.776;22.638;2022-07-22T07:39:11;35.00;8.00
37158;DHT22;23050;51.776;22.638;2022-07-22T07:41:37;35.80;5.70
37158;DHT22;23050;51.776;22.638;2022-07-22T07:44:03;34.80;2.60
37158;DHT22;23050;51.776;22.638;2022-07-22T07:46:28;34.50;3.90
37158;DHT22;23050;51.776;22.638;2022-07-22T07:48:54;34.90;4.90
37158;DHT22;23050;51.776;22.638;2022-07-22T07:51:20;34.80;5.10
37158;DHT22;23050;51.776;22.638;2022-07-22T07:53:45;34.30;5.30
37158;DHT22;23050;51.776;22.638;2022-07-22T07:56:11;34.40;5.40
37158;DHT22;23050;51.776;22.638;2022-07-22T07:58:37;34.80;5.20
37158;DHT22;23050;51.776;22.638;2022-07-22T08:01:02;34.70;4.50
37158;DHT22;23050;51.776;22.638;2022-07-22T08:03:28;34.90;4.60
37158;DHT22;23050;51.776;22.638;2022-07-22T08:05:54;35.20;4.30
37158;DHT22;23050;51.776;22.638;2022-07-22T08:08:20;35.40;3.60
37158;DHT22;23050;51.776;22.638;2022-07-22T08:10:46;34.50;5.20
37158;DHT22;23050;51.776;22.638;2022-07-22T08:13:12;34.80;4.40
37158;DHT22;23050;51.776;22.638;2022-07-22T08:15:38;34.30;4.10
37158;DHT22;23050;51.776;22.638;2022-07-22T08:18:04;33.50;5.20
37158;DHT22;23050;51.776;22.638;2022-07-22T08:20:30;34.00;4.70
37158;DHT22;23050;51.776;22.638;2022-07-22T08:22:56;34.30;5.10
37158;DHT22;23050;51.776;22.638;2022-07-22T08:25:22;33.90;4.80
37158;DHT22;23050;51.776;22.638;2022-07-22T08:27:48;34.20;5.30
37158;DHT22;23050;51.776;22.638;2022-07-22T08:30:14;35.30;3.60
37158;DHT22;23050;51.776;22.638;2022-07-22T08:32:40;35.20;3.00
37158;DHT22;23050;51.776;22.638;2022-07-22T08:35:08;35.50;3.20
37158;DHT22;23050;51.776;22.638;2022-07-22T08:37:34;36.10;2.70
37158;DHT22;23050;51.776;22.638;2022-07-22T08:40:00;36.80;2.10
37158;DHT22;23050;51.776;22.638;2022-07-22T08:42:26;37.60;1.40
37158;DHT22;23050;51.776;22.638;2022-07-22T08:44:53;37.40;1.00
37158;DHT22;23050;51.776;22.638;2022-07-22T08:47:23;36.80;1.00
37158;DHT22;23050;51.776;22.638;2022-07-22T08:49:49;36.90;1.00
37158;DHT22;23050;51.776;22.638;2022-07-22T08:52:15;37.00;1.00
37158;DHT22;23050;51.776;22.638;2022-07-22T08:54:41;37.30;1.00
37158;DHT22;23050;51.776;22.638;2022-07-22T08:57:07;36.80;1.00
37158;DHT22;23050;51.776;22.638;2022-07-22T08:59:32;37.70;1.00
37158;DHT22;23050;51.776;22.638;2022-07-22T09:02:16;37.60;1.00
37158;DHT22;23050;51.776;22.638;2022-07-22T09:05:02;37.60;1.00
37158;DHT22;23050;51.776;22.638;2022-07-22T09:07:30;37.10;1.00
37158;DHT22;23050;51.776;22.638;2022-07-22T09:09:58;37.10;1.00
37158;DHT22;23050;51.776;22.638;2022-07-22T09:12:24;37.10;1.00
37158;DHT22;23050;51.776;22.638;2022-07-22T09:14:55;37.40;1.00
37158;DHT22;23050;51.776;22.638;2022-07-22T09:17:25;37.20;1.00
37158;DHT22;23050;51.776;22.638;2022-07-22T09:19:51;37.00;1.00
37158;DHT22;23050;51.776;22.638;2022-07-22T09:22:39;37.60;1.00
37158;DHT22;23050;51.776;22.638;2022-07-22T09:25:28;37.20;1.00
37158;DHT22;23050;51.776;22.638;2022-07-22T09:28:08;37.10;1.00
37158;DHT22;23050;51.776;22.638;2022-07-22T09:30:39;38.20;1.00
37158;DHT22;23050;51.776;22.638;2022-07-22T09:33:07;38.90;1.00
37158;DHT22;23050;51.776;22.638;2022-07-22T09:35:33;39.00;1.00
37158;DHT22;23050;51.776;22.638;2022-07-22T09:38:04;38.60;1.00
37158;DHT22;23050;51.776;22.638;2022-07-22T09:40:42;38.40;1.00
37158;DHT22;23050;51.776;22.638;2022-07-22T09:43:11;38.20;1.00
37158;DHT22;23050;51.776;22.638;2022-07-22T09:45:52;38.20;1.00
37158;DHT22;23050;51.776;22.638;2022-07-22T09:48:25;38.00;1.00
37158;DHT22;23050;51.776;22.638;2022-07-22T09:50:53;37.10;1.00
37158;DHT22;23050;51.776;22.638;2022-07-22T09:53:23;37.20;1.00
37158;DHT22;23050;51.776;22.638;2022-07-22T09:55:49;37.40;1.00
37158;DHT22;23050;51.776;22.638;2022-07-22T09:58:15;36.80;1.00
37158;DHT22;23050;51.776;22.638;2022-07-22T10:00:41;36.90;1.00
37158;DHT22;23050;51.776;22.638;2022-07-22T10:03:11;36.50;1.00
37158;DHT22;23050;51.776;22.638;2022-07-22T10:05:39;37.60;1.00
37158;DHT22;23050;51.776;22.638;2022-07-22T10:08:06;38.70;1.00
37158;DHT22;23050;51.776;22.638;2022-07-22T10:10:33;39.60;1.00
37158;DHT22;23050;51.776;22.638;2022-07-22T10:13:01;40.00;1.00
37158;DHT22;23050;51.776;22.638;2022-07-22T10:15:30;40.80;1.00
37158;DHT22;23050;51.776;22.638;2022-07-22T10:17:58;40.70;1.00
37158;DHT22;23050;51.776;22.638;2022-07-22T10:20:27;39.90;1.00
37158;DHT22;23050;51.776;22.638;2022-07-22T10:22:57;39.10;1.00
37158;DHT22;23050;51.776;22.638;2022-07-22T10:25:26;37.60;1.00
37158;DHT22;23050;51.776;22.638;2022-07-22T10:27:58;36.70;1.00
37158;DHT22;23050;51.776;22.638;2022-07-22T10:30:29;36.20;1.00
37158;DHT22;23050;51.776;22.638;2022-07-22T10:33:24;37.10;1.00
37158;DHT22;23050;51.776;22.638;2022-07-22T10:36:02;37.60;1.00
37158;DHT22;23050;51.776;22.638;2022-07-22T10:38:30;37.50;1.00
37158;DHT22;23050;51.776;22.638;2022-07-22T10:41:05;38.50;1.00
37158;DHT22;23050;51.776;22.638;2022-07-22T10:46:08;38.50;1.00
37158;DHT22;23050;51.776;22.638;2022-07-22T10:51:09;38.50;1.00
37158;DHT22;23050;51.776;22.638;2022-07-22T11:01:20;37.40;1.00
37158;DHT22;23050;51.776;22.638;2022-07-22T11:03:47;36.80;1.00
37158;DHT22;23050;51.776;22.638;2022-07-22T11:06:20;37.00;1.00
37158;DHT22;23050;51.776;22.638;2022-07-22T11:08:52;36.60;1.00
37158;DHT22;23050;51.776;22.638;2022-07-22T11:11:23;37.20;1.00
37158;DHT22;23050;51.776;22.638;2022-07-22T11:13:56;37.00;1.00
37158;DHT22;23050;51.776;22.638;2022-07-22T11:16:26;36.90;1.00
37158;DHT22;23050;51.776;22.638;2022-07-22T11:19:00;37.60;1.00
37158;DHT22;23050;51.776;22.638;2022-07-22T11:21:29;37.40;1.00
37158;DHT22;23050;51.776;22.638;2022-07-22T11:23:56;37.30;1.00
37158;DHT22;23050;51.776;22.638;2022-07-22T11:26:41;37.20;1.00
37158;DHT22;23050;51.776;22.638;2022-07-22T11:29:08;36.80;1.00
37158;DHT22;23050;51.776;22.638;2022-07-22T11:31:35;37.10;1.00
37158;DHT22;23050;51.776;22.638;2022-07-22T11:34:11;37.30;1.00
37158;DHT22;23050;51.776;22.638;2022-07-22T11:36:39;37.90;1.00
37158;DHT22;23050;51.776;22.638;2022-07-22T11:39:06;38.20;1.00
37158;DHT22;23050;51.776;22.638;2022-07-22T11:41:33;38.50;1.00
37158;DHT22;23050;51.776;22.638;2022-07-22T11:43:59;38.90;1.00
37158;DHT22;23050;51.776;22.638;2022-07-22T11:46:26;38.70;1.00
37158;DHT22;23050;51.776;22.638;2022-07-22T11:48:52;39.00;1.00
37158;DHT22;23050;51.776;22.638;2022-07-22T11:51:19;38.50;1.00
37158;DHT22;23050;51.776;22.638;2022-07-22T11:53:45;38.80;1.00
37158;DHT22;23050;51.776;22.638;2022-07-22T11:56:11;38.70;1.00
37158;DHT22;23050;51.776;22.638;2022-07-22T11:58:47;38.50;1.00
37158;DHT22;23050;51.776;22.638;2022-07-22T12:01:16;38.40;1.00
37158;DHT22;23050;51.776;22.638;2022-07-22T12:03:45;38.80;1.00
37158;DHT22;23050;51.776;22.638;2022-07-22T12:06:13;38.90;1.00
37158;DHT22;23050;51.776;22.638;2022-07-22T12:08:47;39.00;1.00
37158;DHT22;23050;51.776;22.638;2022-07-22T12:11:14;38.40;1.00
37158;DHT22;23050;51.776;22.638;2022-07-22T12:13:45;38.50;1.00
37158;DHT22;23050;51.776;22.638;2022-07-22T12:16:27;38.30;1.00
37158;DHT22;23050;51.776;22.638;2022-07-22T12:18:56;38.50;1.00
37158;DHT22;23050;51.776;22.638;2022-07-22T12:21:24;38.30;1.00
37158;DHT22;23050;51.776;22.638;2022-07-22T12:23:52;38.50;1.00
37158;DHT22;23050;51.776;22.638;2022-07-22T12:26:18;39.00;1.00
37158;DHT22;23050;51.776;22.638;2022-07-22T12:28:44;39.60;1.00
37158;DHT22;23050;51.776;22.638;2022-07-22T12:31:10;39.80;1.00
37158;DHT22;23050;51.776;22.638;2022-07-22T12:33:35;40.10;1.00
37158;DHT22;23050;51.776;22.638;2022-07-22T12:36:06;39.90;1.00
37158;DHT22;23050;51.776;22.638;2022-07-22T12:38:33;39.50;1.00
37158;DHT22;23050;51.776;22.638;2022-07-22T12:41:21;38.90;1.00
37158;DHT22;23050;51.776;22.638;2022-07-22T12:43:49;38.80;1.00
37158;DHT22;23050;51.776;22.638;2022-07-22T12:46:14;38.50;1.00
37158;DHT22;23050;51.776;22.638;2022-07-22T12:48:50;38.60;1.00
37158;DHT22;23050;51.776;22.638;2022-07-22T12:51:15;38.70;1.00
37158;DHT22;23050;51.776;22.638;2022-07-22T12:53:41;39.10;1.00
37158;DHT22;23050;51.776;22.638;2022-07-22T12:56:06;39.40;1.00
37158;DHT22;23050;51.776;22.638;2022-07-22T12:58:36;39.80;1.00
37158;DHT22;23050;51.776;22.638;2022-07-22T13:01:03;40.20;1.00
37158;DHT22;23050;51.776;22.638;2022-07-22T13:03:29;40.30;1.00
37158;DHT22;23050;51.776;22.638;2022-07-22T13:06:00;40.20;1.00
37158;DHT22;23050;51.776;22.638;2022-07-22T13:08:26;39.50;1.00
37158;DHT22;23050;51.776;22.638;2022-07-22T13:10:53;39.30;1.00
37158;DHT22;23050;51.776;22.638;2022-07-22T13:13:21;39.40;1.00
37158;DHT22;23050;51.776;22.638;2022-07-22T13:15:47;39.00;1.00
37158;DHT22;23050;51.776;22.638;2022-07-22T13:18:13;38.70;1.00
37158;DHT22;23050;51.776;22.638;2022-07-22T13:20:39;38.90;1.00
37158;DHT22;23050;51.776;22.638;2022-07-22T13:23:05;39.10;1.00
37158;DHT22;23050;51.776;22.638;2022-07-22T13:25:31;39.10;1.00
37158;DHT22;23050;51.776;22.638;2022-07-22T13:27:58;38.70;1.00
37158;DHT22;23050;51.776;22.638;2022-07-22T13:30:24;38.60;1.00
37158;DHT22;23050;51.776;22.638;2022-07-22T13:32:50;38.00;1.00
37158;DHT22;23050;51.776;22.638;2022-07-22T13:35:16;38.70;1.00
37158;DHT22;23050;51.776;22.638;2022-07-22T13:37:43;39.20;1.00
37158;DHT22;23050;51.776;22.638;2022-07-22T13:40:09;38.90;1.00
37158;DHT22;23050;51.776;22.638;2022-07-22T13:42:35;39.00;1.00
37158;DHT22;23050;51.776;22.638;2022-07-22T13:45:01;38.50;1.00
37158;DHT22;23050;51.776;22.638;2022-07-22T13:47:26;38.20;1.00
37158;DHT22;23050;51.776;22.638;2022-07-22T13:49:53;38.50;1.00
37158;DHT22;23050;51.776;22.638;2022-07-22T13:52:18;38.40;1.00
37158;DHT22;23050;51.776;22.638;2022-07-22T13:54:44;38.60;1.00
37158;DHT22;23050;51.776;22.638;2022-07-22T13:57:10;38.20;1.00
37158;DHT22;23050;51.776;22.638;2022-07-22T13:59:36;38.40;1.00
37158;DHT22;23050;51.776;22.638;2022-07-22T14:02:02;38.70;1.00
37158;DHT22;23050;51.776;22.638;2022-07-22T14:04:28;38.70;1.00
37158;DHT22;23050;51.776;22.638;2022-07-22T14:06:53;38.10;1.00
37158;DHT22;23050;51.776;22.638;2022-07-22T14:09:19;37.90;1.00
37158;DHT22;23050;51.776;22.638;2022-07-22T14:11:45;37.60;1.00
37158;DHT22;23050;51.776;22.638;2022-07-22T14:14:11;37.80;1.00
37158;DHT22;23050;51.776;22.638;2022-07-22T14:16:36;38.20;1.00
37158;DHT22;23050;51.776;22.638;2022-07-22T14:19:07;38.70;1.00
37158;DHT22;23050;51.776;22.638;2022-07-22T14:21:34;39.30;1.00
37158;DHT22;23050;51.776;22.638;2022-07-22T14:24:01;38.50;1.00
37158;DHT22;23050;51.776;22.638;2022-07-22T14:26:28;37.80;1.00
37158;DHT22;23050;51.776;22.638;2022-07-22T14:28:53;37.50;1.00
37158;DHT22;23050;51.776;22.638;2022-07-22T14:31:19;37.80;1.00
37158;DHT22;23050;51.776;22.638;2022-07-22T14:33:45;37.50;1.00
37158;DHT22;23050;51.776;22.638;2022-07-22T14:36:11;37.50;1.00
37158;DHT22;23050;51.776;22.638;2022-07-22T14:38:37;37.40;1.00
37158;DHT22;23050;51.776;22.638;2022-07-22T14:41:02;37.30;1.00
37158;DHT22;23050;51.776;22.638;2022-07-22T14:43:28;37.50;1.00
37158;DHT22;23050;51.776;22.638;2022-07-22T14:45:54;38.00;1.00
37158;DHT22;23050;51.776;22.638;2022-07-22T14:48:20;38.50;1.00
37158;DHT22;23050;51.776;22.638;2022-07-22T14:50:45;38.70;1.00
37158;DHT22;23050;51.776;22.638;2022-07-22T14:53:12;38.60;1.00
37158;DHT22;23050;51.776;22.638;2022-07-22T14:55:38;38.70;1.00
37158;DHT22;23050;51.776;22.638;2022-07-22T14:58:04;39.10;1.00
37158;DHT22;23050;51.776;22.638;2022-07-22T15:00:30;39.50;1.00
37158;DHT22;23050;51.776;22.638;2022-07-22T15:02:55;39.40;1.00
37158;DHT22;23050;51.776;22.638;2022-07-22T15:05:21;38.80;1.00
37158;DHT22;23050;51.776;22.638;2022-07-22T15:07:47;38.40;1.00
37158;DHT22;23050;51.776;22.638;2022-07-22T15:10:13;38.00;1.00
37158;DHT22;23050;51.776;22.638;2022-07-22T15:12:38;38.00;1.00
37158;DHT22;23050;51.776;22.638;2022-07-22T15:15:04;37.70;1.00
37158;DHT22;23050;51.776;22.638;2022-07-22T15:17:34;38.00;1.00
37158;DHT22;23050;51.776;22.638;2022-07-22T15:20:00;38.10;1.00
37158;DHT22;23050;51.776;22.638;2022-07-22T15:22:26;38.00;1.00
37158;DHT22;23050;51.776;22.638;2022-07-22T15:24:53;37.40;1.00
37158;DHT22;23050;51.776;22.638;2022-07-22T15:27:19;36.90;1.00
37158;DHT22;23050;51.776;22.638;2022-07-22T15:29:45;37.00;1.00
37158;DHT22;23050;51.776;22.638;2022-07-22T15:32:10;36.90;1.00
37158;DHT22;23050;51.776;22.638;2022-07-22T15:34:37;36.90;1.00
37158;DHT22;23050;51.776;22.638;2022-07-22T15:37:03;36.70;1.00